sensor_id;sensor_type;location;lat;lon;timestamp;P1;durP1;ratioP1;P2;durP2;ratioP2
26036;SDS011;13810;48.376;10.944;2023-07-31T00:00:16;7.32;;;2.42;;
26036;SDS011;13810;48.376;10.944;2023-07-31T00:00:47;4.30;;;2.85;;
26036;SDS011;13810;48.376;10.944;2023-07-31T00:01:18;2.55;;;1.60;;
26036;SDS011;13810;48.376;10.944;2023-07-31T00:01:48;4.70;;;2.47;;
26036;SDS011;13810;48.376;10.944;2023-07-31T00:02:19;4.70;;;2.33;;
26036;SDS011;13810;48.376;10.944;2023-07-31T00:02:49;4.53;;;2.08;;
26036;SDS011;13810;48.376;10.944;2023-07-31T00:03:22;6.35;;;2.45;;
26036;SDS011;13810;48.376;10.944;2023-07-31T00:03:52;5.55;;;2.50;;
26036;SDS011;13810;48.376;10.944;2023-07-31T00:04:23;6.05;;;1.95;;
26036;SDS011;13810;48.376;10.944;2023-07-31T00:04:54;7.57;;;2.28;;
26036;SDS011;13810;48.376;10.944;2023-07-31T00:05:24;2.42;;;1.95;;
26036;SDS011;13810;48.376;10.944;2023-07-31T00:05:55;4.55;;;2.55;;
26036;SDS011;13810;48.376;10.944;2023-07-31T00:06:25;3.65;;;2.55;;
26036;SDS011;13810;48.376;10.944;2023-07-31T00:06:56;3.53;;;2.17;;
26036;SDS011;13810;48.376;10.944;2023-07-31T00:07:27;5.70;;;2.45;;
26036;SDS011;13810;48.376;10.944;2023-07-31T00:07:57;4.85;;;2.25;;
26036;SDS011;13810;48.376;10.944;2023-07-31T00:08:28;3.45;;;2.15;;
26036;SDS011;13810;48.376;10.944;2023-07-31T00:08:58;3.85;;;2.90;;
26036;SDS011;13810;48.376;10.944;2023-07-31T00:09:29;4.95;;;2.33;;
26036;SDS011;13810;48.376;10.944;2023-07-31T00:10:00;3.35;;;2.40;;
26036;SDS011;13810;48.376;10.944;2023-07-31T00:10:30;4.63;;;2.17;;
26036;SDS011;13810;48.376;10.944;2023-07-31T00:11:01;2.55;;;1.83;;
26036;SDS011;13810;48.376;10.944;2023-07-31T00:11:32;4.95;;;2.35;;
26036;SDS011;13810;48.376;10.944;2023-07-31T00:12:03;4.05;;;2.22;;
26036;SDS011;13810;48.376;10.944;2023-07-31T00:12:33;9.15;;;2.95;;
26036;SDS011;13810;48.376;10.944;2023-07-31T00:13:04;4.90;;;2.53;;
26036;SDS011;13810;48.376;10.944;2023-07-31T00:13:35;7.95;;;2.80;;
26036;SDS011;13810;48.376;10.944;2023-07-31T00:14:05;3.35;;;2.10;;
26036;SDS011;13810;48.376;10.944;2023-07-31T00:14:36;6.22;;;1.83;;
26036;SDS011;13810;48.376;10.944;2023-07-31T00:15:07;2.60;;;1.95;;
26036;SDS011;13810;48.376;10.944;2023-07-31T00:15:38;2.10;;;1.90;;
26036;SDS011;13810;48.376;10.944;2023-07-31T00:16:08;3.35;;;2.45;;
26036;SDS011;13810;48.376;10.944;2023-07-31T00:16:39;5.38;;;2.22;;
26036;SDS011;13810;48.376;10.944;2023-07-31T00:17:09;7.07;;;2.10;;
26036;SDS011;13810;48.376;10.944;2023-07-31T00:17:40;3.25;;;2.10;;
26036;SDS011;13810;48.376;10.944;2023-07-31T00:18:11;4.40;;;1.73;;
26036;SDS011;13810;48.376;10.944;2023-07-31T00:18:41;4.10;;;1.83;;
26036;SDS011;13810;48.376;10.944;2023-07-31T00:19:12;2.38;;;1.77;;
26036;SDS011;13810;48.376;10.944;2023-07-31T00:19:43;3.45;;;2.00;;
26036;SDS011;13810;48.376;10.944;2023-07-31T00:20:13;2.92;;;1.83;;
26036;SDS011;13810;48.376;10.944;2023-07-31T00:20:44;3.80;;;2.17;;
26036;SDS011;13810;48.376;10.944;2023-07-31T00:21:15;2.45;;;1.95;;
26036;SDS011;13810;48.376;10.944;2023-07-31T00:21:45;1.85;;;1.50;;
26036;SDS011;13810;48.376;10.944;2023-07-31T00:22:16;3.78;;;1.80;;
26036;SDS011;13810;48.376;10.944;2023-07-31T00:22:47;3.75;;;2.33;;
26036;SDS011;13810;48.376;10.944;2023-07-31T00:23:17;2.15;;;1.60;;
26036;SDS011;13810;48.376;10.944;2023-07-31T00:23:48;4.10;;;1.92;;
26036;SDS011;13810;48.376;10.944;2023-07-31T00:24:19;3.30;;;2.08;;
26036;SDS011;13810;48.376;10.944;2023-07-31T00:24:49;3.28;;;2.13;;
26036;SDS011;13810;48.376;10.944;2023-07-31T00:25:20;3.17;;;1.52;;
26036;SDS011;13810;48.376;10.944;2023-07-31T00:25:50;5.30;;;1.70;;
26036;SDS011;13810;48.376;10.944;2023-07-31T00:26:21;4.75;;;1.60;;
26036;SDS011;13810;48.376;10.944;2023-07-31T00:26:52;3.10;;;1.75;;
26036;SDS011;13810;48.376;10.944;2023-07-31T00:27:23;5.00;;;1.75;;
26036;SDS011;13810;48.376;10.944;2023-07-31T00:27:53;2.03;;;1.35;;
26036;SDS011;13810;48.376;10.944;2023-07-31T00:28:24;5.03;;;1.75;;
26036;SDS011;13810;48.376;10.944;2023-07-31T00:28:54;2.17;;;1.40;;
26036;SDS011;13810;48.376;10.944;2023-07-31T00:29:25;2.47;;;1.85;;
26036;SDS011;13810;48.376;10.944;2023-07-31T00:29:56;2.80;;;1.80;;
26036;SDS011;13810;48.376;10.944;2023-07-31T00:30:26;2.13;;;1.50;;
26036;SDS011;13810;48.376;10.944;2023-07-31T00:30:57;2.75;;;1.80;;
26036;SDS011;13810;48.376;10.944;2023-07-31T00:31:28;5.80;;;1.50;;
26036;SDS011;13810;48.376;10.944;2023-07-31T00:31:58;7.72;;;1.80;;
26036;SDS011;13810;48.376;10.944;2023-07-31T00:32:29;3.78;;;1.60;;
26036;SDS011;13810;48.376;10.944;2023-07-31T00:32:59;2.40;;;1.60;;
26036;SDS011;13810;48.376;10.944;2023-07-31T00:33:31;1.88;;;1.35;;
26036;SDS011;13810;48.376;10.944;2023-07-31T00:34:01;2.83;;;2.33;;
26036;SDS011;13810;48.376;10.944;2023-07-31T00:34:32;7.60;;;1.58;;
26036;SDS011;13810;48.376;10.944;2023-07-31T00:35:03;6.68;;;2.00;;
26036;SDS011;13810;48.376;10.944;2023-07-31T00:35:34;2.47;;;1.80;;
26036;SDS011;13810;48.376;10.944;2023-07-31T00:36:05;2.83;;;1.65;;
26036;SDS011;13810;48.376;10.944;2023-07-31T00:36:35;2.97;;;1.55;;
26036;SDS011;13810;48.376;10.944;2023-07-31T00:37:06;1.60;;;1.48;;
26036;SDS011;13810;48.376;10.944;2023-07-31T00:37:37;3.90;;;2.25;;
26036;SDS011;13810;48.376;10.944;2023-07-31T00:38:07;5.15;;;2.35;;
26036;SDS011;13810;48.376;10.944;2023-07-31T00:38:38;4.47;;;1.92;;
26036;SDS011;13810;48.376;10.944;2023-07-31T00:39:08;7.38;;;2.03;;
26036;SDS011;13810;48.376;10.944;2023-07-31T00:39:39;3.30;;;2.25;;
26036;SDS011;13810;48.376;10.944;2023-07-31T00:40:10;6.60;;;1.52;;
26036;SDS011;13810;48.376;10.944;2023-07-31T00:40:40;2.35;;;1.52;;
26036;SDS011;13810;48.376;10.944;2023-07-31T00:41:11;4.28;;;1.48;;
26036;SDS011;13810;48.376;10.944;2023-07-31T00:41:42;4.40;;;1.30;;
26036;SDS011;13810;48.376;10.944;2023-07-31T00:42:12;1.88;;;1.75;;
26036;SDS011;13810;48.376;10.944;2023-07-31T00:42:43;3.10;;;1.40;;
26036;SDS011;13810;48.376;10.944;2023-07-31T00:43:14;3.53;;;1.88;;
26036;SDS011;13810;48.376;10.944;2023-07-31T00:43:44;4.38;;;1.70;;
26036;SDS011;13810;48.376;10.944;2023-07-31T00:44:15;2.88;;;2.00;;
26036;SDS011;13810;48.376;10.944;2023-07-31T00:44:46;1.63;;;1.45;;
26036;SDS011;13810;48.376;10.944;2023-07-31T00:45:16;4.78;;;2.15;;
26036;SDS011;13810;48.376;10.944;2023-07-31T00:45:47;2.47;;;1.88;;
26036;SDS011;13810;48.376;10.944;2023-07-31T00:46:18;4.50;;;1.90;;
26036;SDS011;13810;48.376;10.944;2023-07-31T00:46:49;5.65;;;2.00;;
26036;SDS011;13810;48.376;10.944;2023-07-31T00:47:19;2.17;;;1.30;;
26036;SDS011;13810;48.376;10.944;2023-07-31T00:47:50;4.28;;;1.85;;
26036;SDS011;13810;48.376;10.944;2023-07-31T00:48:21;2.40;;;1.50;;
26036;SDS011;13810;48.376;10.944;2023-07-31T00:48:51;3.53;;;1.88;;
26036;SDS011;13810;48.376;10.944;2023-07-31T00:49:22;2.22;;;2.03;;
26036;SDS011;13810;48.376;10.944;2023-07-31T00:49:53;2.50;;;1.77;;
26036;SDS011;13810;48.376;10.944;2023-07-31T00:50:24;2.92;;;1.67;;
26036;SDS011;13810;48.376;10.944;2023-07-31T00:50:56;6.22;;;1.70;;
26036;SDS011;13810;48.376;10.944;2023-07-31T00:51:26;1.77;;;1.55;;
26036;SDS011;13810;48.376;10.944;2023-07-31T00:51:57;5.10;;;1.75;;
26036;SDS011;13810;48.376;10.944;2023-07-31T00:52:28;3.65;;;1.77;;
26036;SDS011;13810;48.376;10.944;2023-07-31T00:52:58;2.78;;;1.95;;
26036;SDS011;13810;48.376;10.944;2023-07-31T00:53:29;3.97;;;1.55;;
26036;SDS011;13810;48.376;10.944;2023-07-31T00:54:00;2.42;;;1.65;;
26036;SDS011;13810;48.376;10.944;2023-07-31T00:54:32;1.60;;;1.50;;
26036;SDS011;13810;48.376;10.944;2023-07-31T00:55:03;4.60;;;1.90;;
26036;SDS011;13810;48.376;10.944;2023-07-31T00:55:34;2.60;;;1.50;;
26036;SDS011;13810;48.376;10.944;2023-07-31T00:56:05;4.00;;;1.92;;
26036;SDS011;13810;48.376;10.944;2023-07-31T00:56:36;2.67;;;1.70;;
26036;SDS011;13810;48.376;10.944;2023-07-31T00:57:07;3.95;;;1.70;;
26036;SDS011;13810;48.376;10.944;2023-07-31T00:57:38;2.25;;;1.58;;
26036;SDS011;13810;48.376;10.944;2023-07-31T00:58:11;3.55;;;1.95;;
26036;SDS011;13810;48.376;10.944;2023-07-31T00:58:42;1.70;;;1.60;;
26036;SDS011;13810;48.376;10.944;2023-07-31T00:59:12;2.75;;;1.27;;
26036;SDS011;13810;48.376;10.944;2023-07-31T00:59:43;3.50;;;1.75;;
26036;SDS011;13810;48.376;10.944;2023-07-31T01:00:14;1.80;;;1.50;;
26036;SDS011;13810;48.376;10.944;2023-07-31T01:00:44;3.38;;;1.40;;
26036;SDS011;13810;48.376;10.944;2023-07-31T01:01:15;3.47;;;1.58;;
26036;SDS011;13810;48.376;10.944;2023-07-31T01:01:46;3.92;;;1.98;;
26036;SDS011;13810;48.376;10.944;2023-07-31T01:02:17;2.08;;;1.55;;
26036;SDS011;13810;48.376;10.944;2023-07-31T01:02:48;2.47;;;1.70;;
26036;SDS011;13810;48.376;10.944;2023-07-31T01:03:20;3.83;;;1.88;;
26036;SDS011;13810;48.376;10.944;2023-07-31T01:03:51;2.10;;;1.63;;
26036;SDS011;13810;48.376;10.944;2023-07-31T01:04:26;1.52;;;1.27;;
26036;SDS011;13810;48.376;10.944;2023-07-31T01:04:57;4.05;;;1.50;;
26036;SDS011;13810;48.376;10.944;2023-07-31T01:06:48;2.78;;;1.52;;
26036;SDS011;13810;48.376;10.944;2023-07-31T01:07:53;1.63;;;1.27;;
26036;SDS011;13810;48.376;10.944;2023-07-31T01:08:40;3.20;;;1.35;;
26036;SDS011;13810;48.376;10.944;2023-07-31T01:09:28;2.40;;;1.60;;
26036;SDS011;13810;48.376;10.944;2023-07-31T01:10:24;6.88;;;1.45;;
26036;SDS011;13810;48.376;10.944;2023-07-31T01:11:00;4.20;;;1.45;;
26036;SDS011;13810;48.376;10.944;2023-07-31T01:11:46;7.95;;;1.50;;
26036;SDS011;13810;48.376;10.944;2023-07-31T01:12:22;4.28;;;2.00;;
26036;SDS011;13810;48.376;10.944;2023-07-31T01:12:54;1.45;;;1.10;;
26036;SDS011;13810;48.376;10.944;2023-07-31T01:13:28;3.50;;;1.58;;
26036;SDS011;13810;48.376;10.944;2023-07-31T01:13:59;3.97;;;1.70;;
26036;SDS011;13810;48.376;10.944;2023-07-31T01:14:31;3.95;;;1.85;;
26036;SDS011;13810;48.376;10.944;2023-07-31T01:15:08;2.40;;;1.52;;
26036;SDS011;13810;48.376;10.944;2023-07-31T01:15:44;3.78;;;1.48;;
26036;SDS011;13810;48.376;10.944;2023-07-31T01:16:14;3.80;;;1.83;;
26036;SDS011;13810;48.376;10.944;2023-07-31T01:16:45;3.92;;;1.65;;
26036;SDS011;13810;48.376;10.944;2023-07-31T01:17:16;2.85;;;1.58;;
26036;SDS011;13810;48.376;10.944;2023-07-31T01:17:46;3.20;;;1.85;;
26036;SDS011;13810;48.376;10.944;2023-07-31T01:18:17;4.03;;;1.20;;
26036;SDS011;13810;48.376;10.944;2023-07-31T01:18:48;3.65;;;1.55;;
26036;SDS011;13810;48.376;10.944;2023-07-31T01:19:20;2.13;;;1.40;;
26036;SDS011;13810;48.376;10.944;2023-07-31T01:19:53;4.20;;;1.65;;
26036;SDS011;13810;48.376;10.944;2023-07-31T01:20:26;5.10;;;1.98;;
26036;SDS011;13810;48.376;10.944;2023-07-31T01:21:03;1.88;;;1.27;;
26036;SDS011;13810;48.376;10.944;2023-07-31T01:26:21;4.53;;;1.70;;
26036;SDS011;13810;48.376;10.944;2023-07-31T01:27:06;3.78;;;1.65;;
26036;SDS011;13810;48.376;10.944;2023-07-31T01:27:53;7.50;;;2.17;;
26036;SDS011;13810;48.376;10.944;2023-07-31T01:29:36;4.50;;;1.77;;
26036;SDS011;13810;48.376;10.944;2023-07-31T01:30:16;2.75;;;1.65;;
26036;SDS011;13810;48.376;10.944;2023-07-31T01:30:52;2.22;;;1.58;;
26036;SDS011;13810;48.376;10.944;2023-07-31T01:31:28;7.50;;;2.35;;
26036;SDS011;13810;48.376;10.944;2023-07-31T01:32:01;3.35;;;1.75;;
26036;SDS011;13810;48.376;10.944;2023-07-31T01:32:33;2.80;;;1.63;;
26036;SDS011;13810;48.376;10.944;2023-07-31T01:33:04;2.95;;;1.60;;
26036;SDS011;13810;48.376;10.944;2023-07-31T01:33:37;2.28;;;1.75;;
26036;SDS011;13810;48.376;10.944;2023-07-31T01:34:09;2.05;;;1.70;;
26036;SDS011;13810;48.376;10.944;2023-07-31T01:34:41;3.20;;;1.60;;
26036;SDS011;13810;48.376;10.944;2023-07-31T01:35:12;9.30;;;2.38;;
26036;SDS011;13810;48.376;10.944;2023-07-31T01:35:45;3.35;;;1.48;;
26036;SDS011;13810;48.376;10.944;2023-07-31T01:36:18;2.40;;;1.70;;
26036;SDS011;13810;48.376;10.944;2023-07-31T01:36:50;4.90;;;1.75;;
26036;SDS011;13810;48.376;10.944;2023-07-31T01:37:20;3.25;;;1.95;;
26036;SDS011;13810;48.376;10.944;2023-07-31T01:37:54;2.45;;;1.75;;
26036;SDS011;13810;48.376;10.944;2023-07-31T01:38:24;2.60;;;1.42;;
26036;SDS011;13810;48.376;10.944;2023-07-31T01:38:58;5.22;;;1.45;;
26036;SDS011;13810;48.376;10.944;2023-07-31T01:39:30;4.38;;;1.67;;
26036;SDS011;13810;48.376;10.944;2023-07-31T01:40:01;2.78;;;2.22;;
26036;SDS011;13810;48.376;10.944;2023-07-31T01:40:31;4.05;;;2.20;;
26036;SDS011;13810;48.376;10.944;2023-07-31T01:41:02;4.50;;;1.85;;
26036;SDS011;13810;48.376;10.944;2023-07-31T01:41:33;3.30;;;1.88;;
26036;SDS011;13810;48.376;10.944;2023-07-31T01:42:03;3.28;;;1.80;;
26036;SDS011;13810;48.376;10.944;2023-07-31T01:42:34;3.42;;;1.73;;
26036;SDS011;13810;48.376;10.944;2023-07-31T01:43:05;5.10;;;1.80;;
26036;SDS011;13810;48.376;10.944;2023-07-31T01:43:36;4.28;;;2.10;;
26036;SDS011;13810;48.376;10.944;2023-07-31T01:44:06;5.88;;;2.67;;
26036;SDS011;13810;48.376;10.944;2023-07-31T01:44:37;4.50;;;2.22;;
26036;SDS011;13810;48.376;10.944;2023-07-31T01:45:08;2.13;;;1.50;;
26036;SDS011;13810;48.376;10.944;2023-07-31T01:45:39;3.60;;;2.15;;
26036;SDS011;13810;48.376;10.944;2023-07-31T01:46:10;2.90;;;1.70;;
26036;SDS011;13810;48.376;10.944;2023-07-31T01:46:40;3.92;;;2.05;;
26036;SDS011;13810;48.376;10.944;2023-07-31T01:47:11;4.07;;;1.95;;
26036;SDS011;13810;48.376;10.944;2023-07-31T01:47:42;3.80;;;1.80;;
26036;SDS011;13810;48.376;10.944;2023-07-31T01:48:12;3.15;;;1.77;;
26036;SDS011;13810;48.376;10.944;2023-07-31T01:48:43;3.17;;;1.80;;
26036;SDS011;13810;48.376;10.944;2023-07-31T01:49:13;4.82;;;1.70;;
26036;SDS011;13810;48.376;10.944;2023-07-31T01:49:44;3.17;;;1.95;;
26036;SDS011;13810;48.376;10.944;2023-07-31T01:50:15;6.55;;;2.22;;
26036;SDS011;13810;48.376;10.944;2023-07-31T01:50:45;6.13;;;2.28;;
26036;SDS011;13810;48.376;10.944;2023-07-31T01:51:16;4.70;;;2.05;;
26036;SDS011;13810;48.376;10.944;2023-07-31T01:51:47;3.90;;;2.15;;
26036;SDS011;13810;48.376;10.944;2023-07-31T01:52:17;2.50;;;1.80;;
26036;SDS011;13810;48.376;10.944;2023-07-31T01:52:48;7.43;;;1.77;;
26036;SDS011;13810;48.376;10.944;2023-07-31T01:53:19;4.43;;;2.13;;
26036;SDS011;13810;48.376;10.944;2023-07-31T01:53:49;3.92;;;1.85;;
26036;SDS011;13810;48.376;10.944;2023-07-31T01:54:20;6.07;;;2.13;;
26036;SDS011;13810;48.376;10.944;2023-07-31T01:54:50;4.45;;;2.05;;
26036;SDS011;13810;48.376;10.944;2023-07-31T01:55:22;4.40;;;2.03;;
26036;SDS011;13810;48.376;10.944;2023-07-31T01:55:52;3.15;;;1.55;;
26036;SDS011;13810;48.376;10.944;2023-07-31T01:56:23;4.20;;;1.85;;
26036;SDS011;13810;48.376;10.944;2023-07-31T01:56:54;2.45;;;1.60;;
26036;SDS011;13810;48.376;10.944;2023-07-31T01:57:24;2.83;;;2.00;;
26036;SDS011;13810;48.376;10.944;2023-07-31T01:57:55;2.35;;;1.83;;
26036;SDS011;13810;48.376;10.944;2023-07-31T01:58:25;3.97;;;2.13;;
26036;SDS011;13810;48.376;10.944;2023-07-31T01:58:56;3.63;;;1.88;;
26036;SDS011;13810;48.376;10.944;2023-07-31T01:59:27;3.03;;;1.88;;
26036;SDS011;13810;48.376;10.944;2023-07-31T01:59:59;2.72;;;1.73;;
26036;SDS011;13810;48.376;10.944;2023-07-31T02:00:29;2.03;;;1.48;;
26036;SDS011;13810;48.376;10.944;2023-07-31T02:01:00;2.95;;;1.60;;
26036;SDS011;13810;48.376;10.944;2023-07-31T02:01:30;4.35;;;1.60;;
26036;SDS011;13810;48.376;10.944;2023-07-31T02:02:01;3.95;;;1.85;;
26036;SDS011;13810;48.376;10.944;2023-07-31T02:02:32;4.43;;;2.03;;
26036;SDS011;13810;48.376;10.944;2023-07-31T02:03:03;6.55;;;1.85;;
26036;SDS011;13810;48.376;10.944;2023-07-31T02:03:33;3.63;;;1.50;;
26036;SDS011;13810;48.376;10.944;2023-07-31T02:04:04;2.85;;;1.83;;
26036;SDS011;13810;48.376;10.944;2023-07-31T02:04:35;3.80;;;1.98;;
26036;SDS011;13810;48.376;10.944;2023-07-31T02:05:06;1.95;;;1.60;;
26036;SDS011;13810;48.376;10.944;2023-07-31T02:05:43;4.03;;;2.30;;
26036;SDS011;13810;48.376;10.944;2023-07-31T02:06:16;2.20;;;1.40;;
26036;SDS011;13810;48.376;10.944;2023-07-31T02:06:47;3.58;;;1.63;;
26036;SDS011;13810;48.376;10.944;2023-07-31T02:07:17;5.90;;;2.03;;
26036;SDS011;13810;48.376;10.944;2023-07-31T02:07:48;1.98;;;1.75;;
26036;SDS011;13810;48.376;10.944;2023-07-31T02:08:18;1.95;;;1.70;;
26036;SDS011;13810;48.376;10.944;2023-07-31T02:08:49;4.85;;;2.17;;
26036;SDS011;13810;48.376;10.944;2023-07-31T02:09:20;4.85;;;1.80;;
26036;SDS011;13810;48.376;10.944;2023-07-31T02:09:50;5.53;;;2.50;;
26036;SDS011;13810;48.376;10.944;2023-07-31T02:10:21;5.03;;;2.25;;
26036;SDS011;13810;48.376;10.944;2023-07-31T02:10:52;5.97;;;2.60;;
26036;SDS011;13810;48.376;10.944;2023-07-31T02:11:24;4.25;;;1.75;;
26036;SDS011;13810;48.376;10.944;2023-07-31T02:11:54;3.90;;;2.20;;
26036;SDS011;13810;48.376;10.944;2023-07-31T02:12:25;6.85;;;2.08;;
26036;SDS011;13810;48.376;10.944;2023-07-31T02:12:55;2.55;;;1.90;;
26036;SDS011;13810;48.376;10.944;2023-07-31T02:13:27;3.15;;;2.33;;
26036;SDS011;13810;48.376;10.944;2023-07-31T02:13:58;5.07;;;1.85;;
26036;SDS011;13810;48.376;10.944;2023-07-31T02:14:29;4.25;;;1.90;;
26036;SDS011;13810;48.376;10.944;2023-07-31T02:14:59;2.65;;;2.20;;
26036;SDS011;13810;48.376;10.944;2023-07-31T02:15:30;4.10;;;1.67;;
26036;SDS011;13810;48.376;10.944;2023-07-31T02:16:01;2.78;;;2.20;;
26036;SDS011;13810;48.376;10.944;2023-07-31T02:16:31;4.38;;;2.03;;
26036;SDS011;13810;48.376;10.944;2023-07-31T02:17:02;3.10;;;1.52;;
26036;SDS011;13810;48.376;10.944;2023-07-31T02:17:33;3.40;;;2.08;;
26036;SDS011;13810;48.376;10.944;2023-07-31T02:18:03;4.82;;;1.95;;
26036;SDS011;13810;48.376;10.944;2023-07-31T02:18:34;3.65;;;1.80;;
26036;SDS011;13810;48.376;10.944;2023-07-31T02:19:05;2.67;;;2.00;;
26036;SDS011;13810;48.376;10.944;2023-07-31T02:19:35;6.03;;;2.10;;
26036;SDS011;13810;48.376;10.944;2023-07-31T02:20:06;4.13;;;2.00;;
26036;SDS011;13810;48.376;10.944;2023-07-31T02:20:37;4.18;;;1.52;;
26036;SDS011;13810;48.376;10.944;2023-07-31T02:21:08;6.65;;;2.25;;
26036;SDS011;13810;48.376;10.944;2023-07-31T02:21:39;7.15;;;2.72;;
26036;SDS011;13810;48.376;10.944;2023-07-31T02:22:09;7.50;;;2.53;;
26036;SDS011;13810;48.376;10.944;2023-07-31T02:22:40;6.50;;;2.30;;
26036;SDS011;13810;48.376;10.944;2023-07-31T02:23:11;8.77;;;2.17;;
26036;SDS011;13810;48.376;10.944;2023-07-31T02:23:42;6.03;;;2.28;;
26036;SDS011;13810;48.376;10.944;2023-07-31T02:24:12;2.25;;;1.88;;
26036;SDS011;13810;48.376;10.944;2023-07-31T02:24:43;5.28;;;2.78;;
26036;SDS011;13810;48.376;10.944;2023-07-31T02:25:14;4.43;;;2.40;;
26036;SDS011;13810;48.376;10.944;2023-07-31T02:25:45;4.82;;;1.83;;
26036;SDS011;13810;48.376;10.944;2023-07-31T02:26:16;2.90;;;2.10;;
26036;SDS011;13810;48.376;10.944;2023-07-31T02:26:46;4.18;;;2.35;;
26036;SDS011;13810;48.376;10.944;2023-07-31T02:27:17;8.25;;;2.65;;
26036;SDS011;13810;48.376;10.944;2023-07-31T02:27:47;4.63;;;1.92;;
26036;SDS011;13810;48.376;10.944;2023-07-31T02:28:18;7.03;;;2.28;;
26036;SDS011;13810;48.376;10.944;2023-07-31T02:28:49;2.58;;;2.20;;
26036;SDS011;13810;48.376;10.944;2023-07-31T02:29:19;5.82;;;2.28;;
26036;SDS011;13810;48.376;10.944;2023-07-31T02:29:50;4.15;;;2.50;;
26036;SDS011;13810;48.376;10.944;2023-07-31T02:30:20;6.15;;;1.92;;
26036;SDS011;13810;48.376;10.944;2023-07-31T02:30:52;3.47;;;2.05;;
26036;SDS011;13810;48.376;10.944;2023-07-31T02:31:22;2.17;;;1.75;;
26036;SDS011;13810;48.376;10.944;2023-07-31T02:31:53;3.97;;;2.22;;
26036;SDS011;13810;48.376;10.944;2023-07-31T02:32:24;2.85;;;2.20;;
26036;SDS011;13810;48.376;10.944;2023-07-31T02:32:54;5.50;;;2.30;;
26036;SDS011;13810;48.376;10.944;2023-07-31T02:33:25;7.78;;;1.77;;
26036;SDS011;13810;48.376;10.944;2023-07-31T02:33:55;3.65;;;1.70;;
26036;SDS011;13810;48.376;10.944;2023-07-31T02:34:26;5.53;;;1.95;;
26036;SDS011;13810;48.376;10.944;2023-07-31T02:34:57;4.85;;;2.00;;
26036;SDS011;13810;48.376;10.944;2023-07-31T02:35:27;5.50;;;2.50;;
26036;SDS011;13810;48.376;10.944;2023-07-31T02:35:58;4.35;;;1.77;;
26036;SDS011;13810;48.376;10.944;2023-07-31T02:36:28;5.82;;;2.28;;
26036;SDS011;13810;48.376;10.944;2023-07-31T02:36:59;3.17;;;1.98;;
26036;SDS011;13810;48.376;10.944;2023-07-31T02:37:30;9.32;;;2.65;;
26036;SDS011;13810;48.376;10.944;2023-07-31T02:38:01;6.47;;;2.50;;
26036;SDS011;13810;48.376;10.944;2023-07-31T02:38:31;4.93;;;2.50;;
26036;SDS011;13810;48.376;10.944;2023-07-31T02:39:02;12.27;;;2.40;;
26036;SDS011;13810;48.376;10.944;2023-07-31T02:39:33;5.18;;;2.92;;
26036;SDS011;13810;48.376;10.944;2023-07-31T02:40:04;2.72;;;2.10;;
26036;SDS011;13810;48.376;10.944;2023-07-31T02:40:35;3.03;;;2.28;;
26036;SDS011;13810;48.376;10.944;2023-07-31T02:41:05;4.47;;;2.30;;
26036;SDS011;13810;48.376;10.944;2023-07-31T02:41:36;3.97;;;2.88;;
26036;SDS011;13810;48.376;10.944;2023-07-31T02:42:07;3.65;;;2.10;;
26036;SDS011;13810;48.376;10.944;2023-07-31T02:42:37;5.05;;;2.08;;
26036;SDS011;13810;48.376;10.944;2023-07-31T02:43:08;4.45;;;1.95;;
26036;SDS011;13810;48.376;10.944;2023-07-31T02:43:39;2.58;;;2.13;;
26036;SDS011;13810;48.376;10.944;2023-07-31T02:44:10;5.28;;;2.15;;
26036;SDS011;13810;48.376;10.944;2023-07-31T02:44:43;5.10;;;2.65;;
26036;SDS011;13810;48.376;10.944;2023-07-31T02:45:14;5.45;;;2.38;;
26036;SDS011;13810;48.376;10.944;2023-07-31T02:45:44;7.45;;;2.22;;
26036;SDS011;13810;48.376;10.944;2023-07-31T02:46:15;6.32;;;2.28;;
26036;SDS011;13810;48.376;10.944;2023-07-31T02:46:46;2.65;;;2.05;;
26036;SDS011;13810;48.376;10.944;2023-07-31T02:47:16;5.55;;;3.47;;
26036;SDS011;13810;48.376;10.944;2023-07-31T02:47:47;5.25;;;2.33;;
26036;SDS011;13810;48.376;10.944;2023-07-31T02:48:18;5.93;;;2.67;;
26036;SDS011;13810;48.376;10.944;2023-07-31T02:48:49;2.60;;;2.15;;
26036;SDS011;13810;48.376;10.944;2023-07-31T02:49:19;9.35;;;3.42;;
26036;SDS011;13810;48.376;10.944;2023-07-31T02:49:50;4.82;;;2.10;;
26036;SDS011;13810;48.376;10.944;2023-07-31T02:50:21;4.57;;;3.03;;
26036;SDS011;13810;48.376;10.944;2023-07-31T02:50:51;5.18;;;2.75;;
26036;SDS011;13810;48.376;10.944;2023-07-31T02:51:23;4.70;;;2.22;;
26036;SDS011;13810;48.376;10.944;2023-07-31T02:51:54;3.88;;;2.88;;
26036;SDS011;13810;48.376;10.944;2023-07-31T02:52:24;5.63;;;2.75;;
26036;SDS011;13810;48.376;10.944;2023-07-31T02:52:55;4.13;;;2.42;;
26036;SDS011;13810;48.376;10.944;2023-07-31T02:53:26;9.45;;;3.13;;
26036;SDS011;13810;48.376;10.944;2023-07-31T02:53:56;3.72;;;2.22;;
26036;SDS011;13810;48.376;10.944;2023-07-31T02:54:27;4.95;;;2.60;;
26036;SDS011;13810;48.376;10.944;2023-07-31T02:54:58;4.60;;;2.65;;
26036;SDS011;13810;48.376;10.944;2023-07-31T02:55:28;5.65;;;2.63;;
26036;SDS011;13810;48.376;10.944;2023-07-31T02:55:59;2.95;;;2.60;;
26036;SDS011;13810;48.376;10.944;2023-07-31T02:56:30;5.03;;;2.72;;
26036;SDS011;13810;48.376;10.944;2023-07-31T02:57:00;8.20;;;3.05;;
26036;SDS011;13810;48.376;10.944;2023-07-31T02:57:31;2.95;;;2.25;;
26036;SDS011;13810;48.376;10.944;2023-07-31T02:58:02;4.43;;;2.42;;
26036;SDS011;13810;48.376;10.944;2023-07-31T02:58:32;5.95;;;2.67;;
26036;SDS011;13810;48.376;10.944;2023-07-31T02:59:03;5.22;;;2.53;;
26036;SDS011;13810;48.376;10.944;2023-07-31T02:59:34;5.22;;;2.70;;
26036;SDS011;13810;48.376;10.944;2023-07-31T03:00:04;5.60;;;2.67;;
26036;SDS011;13810;48.376;10.944;2023-07-31T03:00:41;9.48;;;2.67;;
26036;SDS011;13810;48.376;10.944;2023-07-31T03:01:12;12.25;;;3.35;;
26036;SDS011;13810;48.376;10.944;2023-07-31T03:01:43;5.07;;;2.38;;
26036;SDS011;13810;48.376;10.944;2023-07-31T03:02:14;5.50;;;3.30;;
26036;SDS011;13810;48.376;10.944;2023-07-31T03:02:45;4.05;;;2.83;;
26036;SDS011;13810;48.376;10.944;2023-07-31T03:03:15;4.75;;;3.13;;
26036;SDS011;13810;48.376;10.944;2023-07-31T03:03:46;6.55;;;3.03;;
26036;SDS011;13810;48.376;10.944;2023-07-31T03:04:16;5.10;;;2.97;;
26036;SDS011;13810;48.376;10.944;2023-07-31T03:04:47;6.10;;;3.30;;
26036;SDS011;13810;48.376;10.944;2023-07-31T03:05:18;6.55;;;2.63;;
26036;SDS011;13810;48.376;10.944;2023-07-31T03:05:48;6.57;;;2.55;;
26036;SDS011;13810;48.376;10.944;2023-07-31T03:06:19;7.55;;;3.67;;
26036;SDS011;13810;48.376;10.944;2023-07-31T03:06:50;3.65;;;2.85;;
26036;SDS011;13810;48.376;10.944;2023-07-31T03:07:20;6.05;;;3.22;;
26036;SDS011;13810;48.376;10.944;2023-07-31T03:07:51;6.90;;;3.15;;
26036;SDS011;13810;48.376;10.944;2023-07-31T03:08:22;3.97;;;2.75;;
26036;SDS011;13810;48.376;10.944;2023-07-31T03:08:53;7.80;;;3.13;;
26036;SDS011;13810;48.376;10.944;2023-07-31T03:09:23;5.55;;;3.10;;
26036;SDS011;13810;48.376;10.944;2023-07-31T03:09:54;9.20;;;3.03;;
26036;SDS011;13810;48.376;10.944;2023-07-31T03:10:24;6.15;;;3.03;;
26036;SDS011;13810;48.376;10.944;2023-07-31T03:10:56;4.88;;;2.92;;
26036;SDS011;13810;48.376;10.944;2023-07-31T03:11:27;9.15;;;3.38;;
26036;SDS011;13810;48.376;10.944;2023-07-31T03:11:57;12.90;;;3.40;;
26036;SDS011;13810;48.376;10.944;2023-07-31T03:12:28;3.67;;;2.70;;
26036;SDS011;13810;48.376;10.944;2023-07-31T03:12:59;4.57;;;2.75;;
26036;SDS011;13810;48.376;10.944;2023-07-31T03:13:29;5.78;;;3.60;;